Time,TemperatureF,DewpointF,PressureIn,WindDirection,WindDirectionDegrees,WindSpeedMPH,WindSpeedGustMPH,Humidity,HourlyPrecipIn,Conditions,Clouds,dailyrainin,SoftwareType,DateUTC
2013-03-08 00:09:00,42.7,-99.9,29.89,ENE,57,4.0,-999.0,0,-99.99,,,0.00,weatherlink.com 1.10,2013-03-08 08:09:00,
2013-03-08 00:25:00,42.0,-99.9,29.89,ENE,66,7.0,-999.0,0,-99.99,,,0.00,weatherlink.com 1.10,2013-03-08 08:25:00,
2013-03-08 00:40:00,41.5,-99.9,29.89,NNE,17,1.0,-999.0,0,-99.99,,,0.00,weatherlink.com 1.10,2013-03-08 08:40:00,
2013-03-08 00:55:00,41.2,-99.9,29.89,NE,55,4.0,-999.0,0,-99.99,,,0.00,weatherlink.com 1.10,2013-03-08 08:55:00,
2013-03-08 01:10:00,40.8,-99.9,29.89,NE,48,0.0,-999.0,0,-99.99,,,0.00,weatherlink.com 1.10,2013-03-08 09:10:00,
2013-03-08 01:25:00,40.5,-99.9,29.89,East,79,6.0,-999.0,0,-99.99,,,0.00,weatherlink.com 1.10,2013-03-08 09:25:00,
2013-03-08 01:40:00,40.2,-99.9,29.89,ENE,62,10.0,-999.0,0,-99.99,,,0.00,weatherlink.com 1.10,2013-03-08 09:40:00,
2013-03-08 01:55:00,39.9,-99.9,29.89,NE,55,11.0,-999.0,0,-99.99,,,0.00,weatherlink.com 1.10,2013-03-08 09:55:00,
2013-03-08 02:10:00,39.6,-99.9,29.88,ENE,65,10.0,-999.0,0,-99.99,,,0.00,weatherlink.com 1.10,2013-03-08 10:10:00,
2013-03-08 02:25:00,39.2,-99.9,29.88,ENE,66,5.0,-999.0,0,-99.99,,,0.00,weatherlink.com 1.10,2013-03-08 10:25:00,
2013-03-08 02:40:00,38.9,-99.9,29.88,ENE,69,4.0,-999.0,0,-99.99,,,0.00,weatherlink.com 1.10,2013-03-08 10:40:00,
2013-03-08 02:55:00,38.8,-99.9,29.87,ENE,72,6.0,-999.0,0,-99.99,,,0.00,weatherlink.com 1.10,2013-03-08 10:55:00,
2013-03-08 03:10:00,38.9,-99.9,29.86,ENE,64,1.0,-999.0,0,-99.99,,,0.00,weatherlink.com 1.10,2013-03-08 11:10:00,
2013-03-08 03:25:00,38.5,-99.9,29.86,NE,50,6.0,-999.0,0,-99.99,,,0.00,weatherlink.com 1.10,2013-03-08 11:25:00,
2013-03-08 03:40:00,39.3,-99.9,29.86,NE,56,7.0,-999.0,0,-99.99,,,0.00,weatherlink.com 1.10,2013-03-08 11:40:00,
2013-03-08 03:55:00,39.9,-99.9,29.86,ENE,58,5.0,-999.0,0,-99.99,,,0.00,weatherlink.com 1.10,2013-03-08 11:55:00,
2013-03-08 04:10:00,38.9,-99.9,29.86,NE,49,6.0,-999.0,0,-99.99,,,0.00,weatherlink.com 1.10,2013-03-08 12:10:00,
2013-03-08 04:25:00,38.7,-99.9,29.86,ENE,57,9.0,-999.0,0,-99.99,,,0.00,weatherlink.com 1.10,2013-03-08 12:25:00,
2013-03-08 04:40:00,38.1,-99.9,29.87,ENE,66,7.0,-999.0,0,-99.99,,,0.00,weatherlink.com 1.10,2013-03-08 12:40:00,
2013-03-08 04:55:00,37.9,-99.9,29.87,ENE,69,6.0,-999.0,0,-99.99,,,0.00,weatherlink.com 1.10,2013-03-08 12:55:00,
2013-03-08 05:10:00,37.5,-99.9,29.88,NE,35,5.0,-999.0,0,-99.99,,,0.00,weatherlink.com 1.10,2013-03-08 13:10:00,
2013-03-08 05:25:00,37.5,-99.9,29.88,ENE,65,9.0,-999.0,0,-99.99,,,0.00,weatherlink.com 1.10,2013-03-08 13:25:00,
2013-03-08 05:40:00,36.8,-99.9,29.88,ENE,67,10.0,-999.0,0,-99.99,,,0.00,weatherlink.com 1.10,2013-03-08 13:40:00,
2013-03-08 05:55:00,36.9,-99.9,29.88,NE,50,10.0,-999.0,0,-99.99,,,0.00,weatherlink.com 1.10,2013-03-08 13:55:00,
2013-03-08 06:10:00,36.4,-99.9,29.88,ENE,57,10.0,-999.0,0,-99.99,,,0.00,weatherlink.com 1.10,2013-03-08 14:10:00,
2013-03-08 06:25:00,35.9,-99.9,29.88,NE,56,10.0,-999.0,0,-99.99,,,0.00,weatherlink.com 1.10,2013-03-08 14:25:00,
2013-03-08 06:40:00,35.9,-99.9,29.88,NE,39,6.0,-999.0,0,-99.99,,,0.00,weatherlink.com 1.10,2013-03-08 14:40:00,
2013-03-08 06:55:00,36.9,-99.9,29.89,ENE,61,9.0,-999.0,0,-99.99,,,0.00,weatherlink.com 1.10,2013-03-08 14:55:00,
2013-03-08 07:10:00,37.4,-99.9,29.89,NE,55,9.0,-999.0,0,-99.99,,,0.00,weatherlink.com 1.10,2013-03-08 15:10:00,
2013-03-08 07:25:00,38.0,-99.9,29.89,ENE,61,5.0,-999.0,0,-99.99,,,0.00,weatherlink.com 1.10,2013-03-08 15:25:00,
2013-03-08 07:40:00,38.4,-99.9,29.89,NE,55,5.0,-999.0,0,-99.99,,,0.00,weatherlink.com 1.10,2013-03-08 15:40:00,
2013-03-08 07:55:00,38.8,-99.9,29.90,NE,49,5.0,-999.0,0,-99.99,,,0.00,weatherlink.com 1.10,2013-03-08 15:55:00,
2013-03-08 08:10:00,39.8,-99.9,29.90,ENE,67,7.0,-999.0,0,-99.99,,,0.00,weatherlink.com 1.10,2013-03-08 16:10:00,
2013-03-08 08:40:00,45.4,-99.9,29.90,NE,53,3.0,-999.0,0,-99.99,,,0.00,weatherlink.com 1.10,2013-03-08 16:40:00,
2013-03-08 08:55:00,46.3,-99.9,29.91,NNE,15,0.0,-999.0,0,-99.99,,,0.00,weatherlink.com 1.10,2013-03-08 16:55:00,
2013-03-08 09:10:00,50.1,-99.9,29.91,WNW,293,0.0,-999.0,0,-99.99,,,0.00,weatherlink.com 1.10,2013-03-08 17:10:00,
2013-03-08 09:25:00,53.5,-16.0,29.91,WNW,285,0.0,-999.0,5,-99.99,,,0.00,weatherlink.com 1.10,2013-03-08 17:25:00,
2013-03-08 09:40:00,55.0,19.0,29.91,WNW,286,6.0,-999.0,24,-99.99,,,0.00,weatherlink.com 1.10,2013-03-08 17:40:00,
2013-03-08 09:55:00,54.9,19.0,29.91,WNW,286,10.0,-999.0,24,-99.99,,,0.00,weatherlink.com 1.10,2013-03-08 17:55:00,
2013-03-08 10:10:00,55.6,23.0,29.91,West,267,13.0,-999.0,28,-99.99,,,0.00,weatherlink.com 1.10,2013-03-08 18:10:00,
2013-03-08 10:25:00,56.3,26.0,29.91,West,279,9.0,-999.0,31,-99.99,,,0.00,weatherlink.com 1.10,2013-03-08 18:25:00,
2013-03-08 10:40:00,56.6,27.0,29.92,WNW,292,8.0,-999.0,32,-99.99,,,0.00,weatherlink.com 1.10,2013-03-08 18:40:00,
2013-03-08 10:55:00,56.9,26.0,29.92,WNW,302,2.0,-999.0,31,-99.99,,,0.00,weatherlink.com 1.10,2013-03-08 18:55:00,
2013-03-08 11:10:00,56.5,27.0,29.92,NW,304,13.0,-999.0,32,-99.99,,,0.00,weatherlink.com 1.10,2013-03-08 19:10:00,
2013-03-08 11:25:00,56.8,26.0,29.91,West,265,8.0,-999.0,31,-99.99,,,0.00,weatherlink.com 1.10,2013-03-08 19:25:00,
2013-03-08 11:40:00,56.9,26.0,29.92,West,269,13.0,-999.0,31,-99.99,,,0.00,weatherlink.com 1.10,2013-03-08 19:40:00,
2013-03-08 11:55:00,56.5,25.0,29.92,WNW,285,16.0,-999.0,30,-99.99,,,0.00,weatherlink.com 1.10,2013-03-08 19:55:00,
2013-03-08 12:10:00,56.5,21.0,29.91,WNW,298,23.0,-999.0,25,-99.99,,,0.00,weatherlink.com 1.10,2013-03-08 20:10:00,
2013-03-08 12:25:00,56.5,20.0,29.91,WNW,291,10.0,-999.0,24,-99.99,,,0.00,weatherlink.com 1.10,2013-03-08 20:25:00,
2013-03-08 12:40:00,56.9,25.0,29.91,WNW,284,15.0,-999.0,29,-99.99,,,0.00,weatherlink.com 1.10,2013-03-08 20:40:00,
2013-03-08 12:55:00,56.9,24.0,29.91,West,280,18.0,-999.0,28,-99.99,,,0.00,weatherlink.com 1.10,2013-03-08 20:55:00,
2013-03-08 13:10:00,56.9,24.0,29.91,West,267,13.0,-999.0,28,-99.99,,,0.00,weatherlink.com 1.10,2013-03-08 21:10:00,
2013-03-08 13:25:00,57.0,27.0,29.91,WNW,288,5.0,-999.0,32,-99.99,,,0.00,weatherlink.com 1.10,2013-03-08 21:25:00,
2013-03-08 13:40:00,57.3,27.0,29.90,WNW,283,10.0,-999.0,31,-99.99,,,0.00,weatherlink.com 1.10,2013-03-08 21:40:00,
2013-03-08 13:55:00,57.7,29.0,29.90,WSW,253,14.0,-999.0,34,-99.99,,,0.00,weatherlink.com 1.10,2013-03-08 21:55:00,
2013-03-08 14:10:00,56.8,26.0,29.90,West,275,19.0,-999.0,31,-99.99,,,0.00,weatherlink.com 1.10,2013-03-08 22:10:00,
2013-03-08 14:25:00,56.7,25.0,29.91,WNW,296,11.0,-999.0,30,-99.99,,,0.00,weatherlink.com 1.10,2013-03-08 22:25:00,
2013-03-08 14:40:00,56.3,26.0,29.91,West,278,19.0,-999.0,31,-99.99,,,0.00,weatherlink.com 1.10,2013-03-08 22:40:00,
2013-03-08 14:55:00,56.6,28.0,29.91,SW,229,9.0,-999.0,33,-99.99,,,0.00,weatherlink.com 1.10,2013-03-08 22:55:00,
2013-03-08 15:10:00,56.4,30.0,29.91,WSW,255,5.0,-999.0,36,-99.99,,,0.00,weatherlink.com 1.10,2013-03-08 23:10:00,
2013-03-08 15:25:00,57.1,31.0,29.92,West,265,22.0,-999.0,38,-99.99,,,0.00,weatherlink.com 1.10,2013-03-08 23:25:00,
2013-03-08 15:40:00,57.0,32.0,29.92,WNW,284,3.0,-999.0,39,-99.99,,,0.00,weatherlink.com 1.10,2013-03-08 23:40:00,
2013-03-08 15:55:00,57.3,32.0,29.92,SW,219,3.0,-999.0,38,-99.99,,,0.00,weatherlink.com 1.10,2013-03-08 23:55:00,
2013-03-08 16:10:00,57.4,32.0,29.92,West,281,1.0,-999.0,38,-99.99,,,0.00,weatherlink.com 1.10,2013-03-09 00:10:00,
2013-03-08 16:25:00,57.4,31.0,29.93,WNW,290,5.0,-999.0,37,-99.99,,,0.00,weatherlink.com 1.10,2013-03-09 00:25:00,
2013-03-08 16:40:00,57.1,30.0,29.92,NW,314,0.0,-999.0,36,-99.99,,,0.00,weatherlink.com 1.10,2013-03-09 00:40:00,
2013-03-08 16:55:00,56.7,29.0,29.93,NNW,344,2.0,-999.0,35,-99.99,,,0.00,weatherlink.com 1.10,2013-03-09 00:55:00,
2013-03-08 17:10:00,55.4,26.0,29.93,WNW,285,0.0,-999.0,32,-99.99,,,0.00,weatherlink.com 1.10,2013-03-09 01:10:00,
2013-03-08 17:25:00,54.3,21.0,29.94,West,262,0.0,-999.0,27,-99.99,,,0.00,weatherlink.com 1.10,2013-03-09 01:25:00,
2013-03-08 17:40:00,53.3,15.0,29.95,West,269,3.0,-999.0,22,-99.99,,,0.00,weatherlink.com 1.10,2013-03-09 01:40:00,
2013-03-08 17:55:00,52.4,11.0,29.95,WNW,288,3.0,-999.0,19,-99.99,,,0.00,weatherlink.com 1.10,2013-03-09 01:55:00,
2013-03-08 18:10:00,51.4,5.0,29.97,WNW,288,0.0,-999.0,15,-99.99,,,0.00,weatherlink.com 1.10,2013-03-09 02:10:00,
2013-03-08 18:25:00,50.5,-3.0,29.98,WNW,291,3.0,-999.0,11,-99.99,,,0.00,weatherlink.com 1.10,2013-03-09 02:25:00,
2013-03-08 18:40:00,49.8,-23.0,29.99,WNW,298,6.0,-999.0,4,-99.99,,,0.00,weatherlink.com 1.10,2013-03-09 02:40:00,
2013-03-08 18:55:00,49.2,-99.9,29.99,West,281,7.0,-999.0,0,-99.99,,,0.00,weatherlink.com 1.10,2013-03-09 02:55:00,
2013-03-08 19:10:00,48.9,-99.9,30.00,NNW,336,0.0,-999.0,0,-99.99,,,0.00,weatherlink.com 1.10,2013-03-09 03:10:00,
2013-03-08 19:25:00,48.7,-99.9,30.00,NW,305,0.0,-999.0,0,-99.99,,,0.00,weatherlink.com 1.10,2013-03-09 03:25:00,
2013-03-08 19:40:00,48.7,-99.9,30.01,WNW,300,0.0,-999.0,0,-99.99,,,0.00,weatherlink.com 1.10,2013-03-09 03:40:00,
2013-03-08 19:55:00,48.8,-99.9,30.01,WNW,290,2.0,-999.0,0,-99.99,,,0.00,weatherlink.com 1.10,2013-03-09 03:55:00,
2013-03-08 20:10:00,48.8,-99.9,30.02,NNW,332,0.0,-999.0,0,-99.99,,,0.00,weatherlink.com 1.10,2013-03-09 04:10:00,
2013-03-08 20:25:00,48.6,-99.9,30.02,NNW,340,0.0,-999.0,0,-99.99,,,0.00,weatherlink.com 1.10,2013-03-09 04:25:00,
2013-03-08 20:40:00,48.3,-99.9,30.03,North,11,0.0,-999.0,0,-99.99,,,0.00,weatherlink.com 1.10,2013-03-09 04:40:00,
2013-03-08 20:55:00,48.2,-99.9,30.03,NE,49,0.0,-999.0,0,-99.99,,,0.00,weatherlink.com 1.10,2013-03-09 04:55:00,
2013-03-08 21:10:00,47.9,-99.9,30.03,NNE,15,0.0,-999.0,0,-99.99,,,0.00,weatherlink.com 1.10,2013-03-09 05:10:00,
2013-03-08 21:25:00,46.7,-99.9,30.05,NNE,15,0.0,-999.0,0,-99.99,,,0.00,weatherlink.com 1.10,2013-03-09 05:25:00,
2013-03-08 21:40:00,45.8,-99.9,30.05,NNE,15,0.0,-999.0,0,-99.99,,,0.00,weatherlink.com 1.10,2013-03-09 05:40:00,
2013-03-08 21:55:00,46.0,-99.9,30.06,North,9,0.0,-999.0,0,-99.99,,,0.00,weatherlink.com 1.10,2013-03-09 05:55:00,
2013-03-08 22:10:00,46.2,-99.9,30.07,North,9,0.0,-999.0,0,-99.99,,,0.00,weatherlink.com 1.10,2013-03-09 06:10:00,
2013-03-08 22:25:00,46.4,-99.9,30.07,NE,44,2.0,-999.0,0,-99.99,,,0.00,weatherlink.com 1.10,2013-03-09 06:25:00,
2013-03-08 22:40:00,46.4,-99.9,30.07,ENE,65,3.0,-999.0,0,-99.99,,,0.00,weatherlink.com 1.10,2013-03-09 06:40:00,
2013-03-08 22:55:00,45.0,-99.9,30.07,NE,55,0.0,-999.0,0,-99.99,,,0.00,weatherlink.com 1.10,2013-03-09 06:55:00,
2013-03-08 23:10:00,44.2,-99.9,30.07,NE,55,0.0,-999.0,0,-99.99,,,0.00,weatherlink.com 1.10,2013-03-09 07:10:00,
2013-03-08 23:25:00,44.5,-99.9,30.06,NE,55,0.0,-999.0,0,-99.99,,,0.00,weatherlink.com 1.10,2013-03-09 07:25:00,
2013-03-08 23:40:00,44.9,-99.9,30.07,NNE,26,0.0,-999.0,0,-99.99,,,0.00,weatherlink.com 1.10,2013-03-09 07:40:00,
2013-03-08 23:55:00,45.1,-99.9,30.06,NNE,24,0.0,-999.0,0,-99.99,,,0.00,weatherlink.com 1.10,2013-03-09 07:55:00,